ENCN/KRS METAR and TAF weather

Enter ICAO airport designator
Station Type Date Time Source
ENCN METAR 2020/12/05 05:50 UTC NOAA

ENCN 050550Z 04011KT 9999 -DZ OVC008 03/02 Q1001


Station Type Date Time Source
ENCN Decoded METAR 2020/12/05 05:50 UTC NOAA

Kristiansand / Kjevik, Norway (ENCN) 58-12N 008-05E 17M
Dec 05, 2020 - 12:50 AM EST / 2020.12.05 0550 UTC
Wind: from the NE (040 degrees) at 13 MPH (11 KT):0
Visibility: greater than 7 mile(s):0
Sky conditions: overcast
Weather: light drizzle
Temperature: 37 F (3 C)
Dew Point: 35 F (2 C)
Relative Humidity: 93%
Pressure (altimeter): 29.56 in. Hg (1001 hPa)
ob: ENCN 050550Z 04011KT 9999 -DZ OVC008 03/02 Q1001
cycle: 6

Station Type Date Time Source
ENCN TAF 2016/05/06 12:39 UTC NOAA

TAF TAF ENCN 061100Z 0612/0712 14008KT 9999 FEW040

Example: see airport list